createdAt,value
2019-06-20T00:00:00.906Z,1003.22
2019-06-20T00:01:01.220Z,1003.23
2019-06-20T00:02:01.660Z,1003.21
2019-06-20T00:03:02.080Z,1003.17
2019-06-20T00:04:02.479Z,1003.19
2019-06-20T00:05:02.917Z,1003.21
2019-06-20T00:06:03.299Z,1003.21
2019-06-20T00:07:03.808Z,1003.21
2019-06-20T00:08:04.153Z,1003.18
2019-06-20T00:09:04.560Z,1003.23
2019-06-20T00:10:04.996Z,1003.26
2019-06-20T00:11:05.373Z,1003.24
2019-06-20T00:12:05.835Z,1003.22
2019-06-20T00:13:06.274Z,1003.29
2019-06-20T00:14:06.668Z,1003.26
2019-06-20T00:15:07.186Z,1003.29
2019-06-20T00:16:07.488Z,1003.31
2019-06-20T00:17:07.924Z,1003.36
2019-06-20T00:18:08.347Z,1003.41
2019-06-20T00:19:08.745Z,1003.41
2019-06-20T00:20:09.180Z,1003.40
2019-06-20T00:21:09.584Z,1003.40
2019-06-20T00:22:10.046Z,1003.39
2019-06-20T00:23:10.452Z,1003.44
2019-06-20T00:24:10.861Z,1003.52
2019-06-20T00:25:11.274Z,1003.57
2019-06-20T00:26:11.665Z,1003.59
2019-06-20T00:27:12.125Z,1003.52
2019-06-20T00:28:12.514Z,1003.40
2019-06-20T00:29:12.932Z,1003.31
2019-06-20T00:30:13.389Z,1003.31
2019-06-20T00:31:13.813Z,1003.29
2019-06-20T00:32:14.353Z,1003.28
2019-06-20T00:33:14.624Z,1003.30
2019-06-20T00:34:15.043Z,1003.32
2019-06-20T00:35:15.481Z,1003.31
2019-06-20T00:36:15.880Z,1003.24
2019-06-20T00:37:16.319Z,1003.17
2019-06-20T00:38:16.737Z,1003.03
2019-06-20T00:39:17.117Z,1003.12
2019-06-20T00:40:17.676Z,1003.07
2019-06-20T00:41:17.971Z,1002.86
2019-06-20T00:42:18.427Z,1002.74
2019-06-20T00:43:18.835Z,1002.65
2019-06-20T00:44:19.215Z,1002.63
2019-06-20T00:45:19.648Z,1002.62
2019-06-20T00:46:20.068Z,1002.63
2019-06-20T00:47:20.512Z,1002.55
2019-06-20T00:48:20.989Z,1002.57
2019-06-20T00:49:21.293Z,1002.61
2019-06-20T00:50:21.734Z,1002.51
2019-06-20T00:51:22.184Z,1002.48
2019-06-20T00:52:22.619Z,1002.44
2019-06-20T00:53:23.038Z,1002.35
2019-06-20T00:54:23.440Z,1002.35
2019-06-20T00:55:23.866Z,1002.22
2019-06-20T00:56:24.307Z,1002.21
2019-06-20T00:57:24.739Z,1002.16
2019-06-20T00:58:25.139Z,1002.13
2019-06-20T00:59:25.544Z,1002.12
2019-06-20T01:00:25.950Z,1002.08
2019-06-20T01:01:26.366Z,1002.06
2019-06-20T01:02:26.783Z,1002.04
2019-06-20T01:03:27.230Z,1002.00
2019-06-20T01:04:27.676Z,1002.05
2019-06-20T01:05:28.104Z,1002.04
2019-06-20T01:06:28.467Z,1002.06
2019-06-20T01:07:28.885Z,1002.07
2019-06-20T01:08:29.544Z,1002.16
2019-06-20T01:09:29.728Z,1002.21
2019-06-20T01:10:30.132Z,1002.23
2019-06-20T01:11:30.566Z,1002.31
2019-06-20T01:12:31.002Z,1002.34
2019-06-20T01:13:33.750Z,1002.48
2019-06-20T01:14:31.809Z,1002.57
2019-06-20T01:15:32.260Z,1002.74
2019-06-20T01:16:32.667Z,1002.86
2019-06-20T01:17:33.066Z,1002.91
2019-06-20T01:18:33.482Z,1002.86
2019-06-20T01:19:33.913Z,1002.89
2019-06-20T01:20:34.329Z,1003.02
2019-06-20T01:21:34.900Z,1003.17
2019-06-20T01:22:35.173Z,1003.11
2019-06-20T01:23:35.595Z,1003.10
2019-06-20T01:24:36.011Z,1003.05
2019-06-20T01:25:36.431Z,1003.05
2019-06-20T01:26:36.867Z,1003.06
2019-06-20T01:27:37.286Z,1003.28
2019-06-20T01:28:37.718Z,1003.21
2019-06-20T01:29:38.160Z,1003.19
2019-06-20T01:30:38.514Z,1003.17
2019-06-20T01:31:38.958Z,1003.05
2019-06-20T01:32:39.389Z,1002.92
2019-06-20T01:33:39.793Z,1003.03
2019-06-20T01:34:40.175Z,1003.08
2019-06-20T01:35:40.599Z,1003.21
2019-06-20T01:36:41.046Z,1003.31
2019-06-20T01:37:41.532Z,1003.37
2019-06-20T01:38:41.872Z,1003.34
2019-06-20T01:39:42.273Z,1003.22
2019-06-20T01:40:42.675Z,1003.18
2019-06-20T01:41:43.120Z,1003.17
2019-06-20T01:42:43.559Z,1003.13
2019-06-20T01:43:50.424Z,1003.14
2019-06-20T01:44:45.395Z,1003.25
2019-06-20T01:45:44.832Z,1003.25
2019-06-20T01:46:45.277Z,1003.18
2019-06-20T01:47:45.659Z,1003.21
2019-06-20T01:48:46.058Z,1003.36
2019-06-20T01:49:46.477Z,1003.10
2019-06-20T01:50:46.888Z,1002.99
2019-06-20T01:51:47.331Z,1003.02
2019-06-20T01:52:47.743Z,1002.98
2019-06-20T01:53:48.178Z,1002.96
2019-06-20T01:54:48.722Z,1003.01
2019-06-20T01:55:49.035Z,1003.11
2019-06-20T01:56:49.450Z,1003.04
2019-06-20T01:57:49.883Z,1003.12
2019-06-20T01:58:50.306Z,1003.12
2019-06-20T01:59:50.739Z,1003.18
2019-06-20T02:00:51.157Z,1003.17
2019-06-20T02:01:51.589Z,1003.25
2019-06-20T02:02:52.141Z,1003.16
2019-06-20T02:03:52.480Z,1003.13
2019-06-20T02:04:52.854Z,1003.16
2019-06-20T02:05:53.262Z,1003.17
2019-06-20T02:06:53.690Z,1003.26
2019-06-20T02:07:54.099Z,1003.29
2019-06-20T02:08:54.500Z,1003.25
2019-06-20T02:09:54.950Z,1003.18
2019-06-20T02:12:27.669Z,1003.07
2019-06-20T02:13:11.010Z,1003.00
2019-06-20T02:14:11.411Z,1003.05
2019-06-20T02:15:11.842Z,1003.07
2019-06-20T02:16:12.245Z,1003.14
2019-06-20T02:17:12.652Z,1003.13
2019-06-20T02:18:13.081Z,1003.15
2019-06-20T02:19:13.514Z,1003.11
2019-06-20T02:20:14.036Z,1003.12
2019-06-20T02:21:14.329Z,1003.09
2019-06-20T02:22:14.751Z,1003.10
2019-06-20T02:23:15.188Z,1003.16
2019-06-20T02:24:15.605Z,1003.17
2019-06-20T02:25:16.042Z,1003.22
2019-06-20T02:26:16.450Z,1003.19
2019-06-20T02:27:16.856Z,1003.18
2019-06-20T02:28:17.379Z,1003.14
2019-06-20T02:29:17.694Z,1003.13
2019-06-20T02:30:18.125Z,1003.09
2019-06-20T02:31:18.594Z,1003.02
2019-06-20T02:32:18.931Z,1002.97
2019-06-20T02:33:19.397Z,1002.92
2019-06-20T02:34:19.781Z,1002.93
2019-06-20T02:35:20.208Z,1002.89
2019-06-20T02:36:20.653Z,1002.93
2019-06-20T02:37:21.069Z,1002.87
2019-06-20T02:38:21.498Z,1002.89
2019-06-20T02:39:21.884Z,1002.89
2019-06-20T02:40:22.300Z,1002.91
2019-06-20T02:41:22.716Z,1002.88
2019-06-20T02:42:23.135Z,1002.86
2019-06-20T02:43:23.586Z,1002.92
2019-06-20T02:44:29.837Z,1002.91
2019-06-20T02:45:25.541Z,1002.90
2019-06-20T02:46:24.808Z,1002.90
2019-06-20T02:47:25.225Z,1002.88
2019-06-20T02:48:25.916Z,1002.93
2019-06-20T02:49:26.060Z,1002.95
2019-06-20T02:50:26.502Z,1002.93
2019-06-20T02:51:26.878Z,1002.99
2019-06-20T02:52:27.321Z,1003.01
2019-06-20T02:53:27.902Z,1003.07
2019-06-20T02:54:28.162Z,1003.14
2019-06-20T02:55:28.599Z,1003.17
2019-06-20T02:56:28.982Z,1003.20
2019-06-20T02:57:29.422Z,1003.23
2019-06-20T02:58:29.885Z,1003.29
2019-06-20T02:59:30.283Z,1003.31
2019-06-20T03:00:30.707Z,1003.28
2019-06-20T03:01:31.141Z,1003.32
2019-06-20T03:02:31.496Z,1003.39
2019-06-20T03:03:31.967Z,1003.44
2019-06-20T03:04:32.355Z,1003.49
2019-06-20T03:05:32.793Z,1003.57
2019-06-20T03:06:33.190Z,1003.58
2019-06-20T03:07:33.604Z,1003.57
2019-06-20T03:08:34.046Z,1003.56
2019-06-20T03:09:34.463Z,1003.61
2019-06-20T03:10:34.914Z,1003.63
2019-06-20T03:11:35.313Z,1003.60
2019-06-20T03:12:35.735Z,1003.62
2019-06-20T03:13:36.188Z,1003.62
2019-06-20T03:14:44.941Z,1003.66
2019-06-20T03:15:38.011Z,1003.70
2019-06-20T03:16:37.423Z,1003.77
2019-06-20T03:17:37.872Z,1003.80
2019-06-20T03:18:38.397Z,1003.94
2019-06-20T03:19:38.667Z,1004.04
2019-06-20T03:20:39.114Z,1004.24
2019-06-20T03:21:39.514Z,1004.27
2019-06-20T03:22:39.935Z,1004.33
2019-06-20T03:23:40.388Z,1004.33
2019-06-20T03:24:40.770Z,1004.33
2019-06-20T03:25:41.174Z,1004.31
2019-06-20T03:26:41.718Z,1004.32
2019-06-20T03:27:42.060Z,1004.28
2019-06-20T03:28:42.519Z,1004.25
2019-06-20T03:29:42.901Z,1004.23
2019-06-20T03:30:43.314Z,1004.21
2019-06-20T03:31:43.748Z,1004.15
2019-06-20T03:32:44.166Z,1004.11
2019-06-20T03:33:44.617Z,1004.03
2019-06-20T03:34:45.069Z,1004.04
2019-06-20T03:35:45.380Z,1004.00
2019-06-20T03:36:45.842Z,1004.01
2019-06-20T03:37:48.132Z,1004.01
2019-06-20T03:38:46.711Z,1003.96
2019-06-20T03:39:47.095Z,1003.93
2019-06-20T03:40:47.540Z,1003.90
2019-06-20T03:41:47.953Z,1003.86
2019-06-20T03:42:48.384Z,1003.77
2019-06-20T03:43:48.784Z,1003.73
2019-06-20T03:45:01.277Z,1003.72
2019-06-20T03:45:50.652Z,1003.73
2019-06-20T03:46:50.036Z,1003.72
2019-06-20T03:47:50.424Z,1003.73
2019-06-20T03:48:50.935Z,1003.68
2019-06-20T03:49:51.283Z,1003.68
2019-06-20T03:50:51.724Z,1003.68
2019-06-20T03:51:52.241Z,1003.64
2019-06-20T03:52:52.523Z,1003.61
2019-06-20T03:53:52.974Z,1003.55
2019-06-20T03:54:53.374Z,1003.49
2019-06-20T03:55:53.795Z,1003.49
2019-06-20T03:56:54.231Z,1003.47
2019-06-20T03:57:54.632Z,1003.46
2019-06-20T03:58:55.100Z,1003.51
2019-06-20T03:59:55.598Z,1003.55
2019-06-20T04:00:55.879Z,1003.64
2019-06-20T04:01:56.331Z,1003.63
2019-06-20T04:02:56.718Z,1003.67
2019-06-20T04:03:57.177Z,1003.68
2019-06-20T04:04:57.544Z,1003.70
2019-06-20T04:05:57.997Z,1003.71
2019-06-20T04:06:58.420Z,1003.79
2019-06-20T04:07:58.925Z,1003.79
2019-06-20T04:08:59.264Z,1003.81
2019-06-20T04:09:59.634Z,1003.85
2019-06-20T04:11:00.083Z,1003.83
2019-06-20T04:12:00.492Z,1003.84
2019-06-20T04:13:00.908Z,1003.87
2019-06-20T04:14:01.366Z,1003.83
2019-06-20T04:15:14.965Z,1003.76
2019-06-20T04:16:03.190Z,1003.75
2019-06-20T04:17:02.587Z,1003.75
2019-06-20T04:18:02.994Z,1003.71
2019-06-20T04:19:03.453Z,1003.71
2019-06-20T04:20:03.857Z,1003.64
2019-06-20T04:21:04.257Z,1003.65
2019-06-20T04:22:04.665Z,1003.63
2019-06-20T04:23:05.086Z,1003.59
2019-06-20T04:24:05.588Z,1003.53
2019-06-20T04:25:05.964Z,1003.59
2019-06-20T04:26:06.618Z,1003.60
2019-06-20T04:27:06.817Z,1003.62
2019-06-20T04:28:07.201Z,1003.61
2019-06-20T04:29:07.654Z,1003.66
2019-06-20T04:30:08.213Z,1003.67
2019-06-20T04:31:08.493Z,1003.70
2019-06-20T04:32:08.980Z,1003.71
2019-06-20T04:33:09.415Z,1003.74
2019-06-20T04:34:09.852Z,1003.75
2019-06-20T04:35:10.202Z,1003.76
2019-06-20T04:36:10.606Z,1003.75
2019-06-20T04:37:11.037Z,1003.81
2019-06-20T04:38:11.439Z,1003.78
2019-06-20T04:39:18.677Z,1003.75
2019-06-20T04:40:13.290Z,1003.75
2019-06-20T04:41:12.857Z,1003.78
2019-06-20T04:42:13.159Z,1003.82
2019-06-20T04:43:13.553Z,1003.73
2019-06-20T04:44:14.020Z,1003.78
2019-06-20T04:45:14.439Z,1003.77
2019-06-20T04:46:14.847Z,1003.89
2019-06-20T04:47:15.284Z,1003.89
2019-06-20T04:48:15.682Z,1003.95
2019-06-20T04:49:19.506Z,1004.00
2019-06-20T04:50:16.522Z,1004.02
2019-06-20T04:51:16.934Z,1004.03
2019-06-20T04:52:17.365Z,1004.03
2019-06-20T04:53:17.787Z,1004.09
2019-06-20T04:54:18.210Z,1004.13
2019-06-20T04:55:18.607Z,1004.12
2019-06-20T04:56:19.029Z,1004.14
2019-06-20T04:57:19.532Z,1004.10
2019-06-20T04:58:19.862Z,1004.13
2019-06-20T04:59:20.305Z,1004.11
2019-06-20T05:00:20.720Z,1004.10
2019-06-20T05:01:21.110Z,1004.08
2019-06-20T05:02:21.631Z,1004.02
2019-06-20T05:03:21.969Z,1004.10
2019-06-20T05:04:22.408Z,1003.96
2019-06-20T05:05:22.887Z,1004.03
2019-06-20T05:06:23.260Z,1003.96
2019-06-20T05:07:23.657Z,1003.99
2019-06-20T05:08:24.064Z,1003.93
2019-06-20T05:09:24.500Z,1003.90
2019-06-20T05:10:24.914Z,1003.93
2019-06-20T05:11:25.322Z,1003.94
2019-06-20T05:12:25.769Z,1003.95
2019-06-20T05:13:26.172Z,1003.92
2019-06-20T05:14:26.738Z,1003.94
2019-06-20T05:15:27.025Z,1003.93
2019-06-20T05:16:27.424Z,1003.93
2019-06-20T05:17:27.846Z,1003.95
2019-06-20T05:18:28.260Z,1003.93
2019-06-20T05:19:28.717Z,1003.95
2019-06-20T05:20:29.124Z,1003.96
2019-06-20T05:21:29.516Z,1004.00
2019-06-20T05:22:30.069Z,1004.05
2019-06-20T05:23:30.345Z,1004.04
2019-06-20T05:24:30.789Z,1004.07
2019-06-20T05:25:31.215Z,1004.11
2019-06-20T05:26:31.616Z,1004.16
2019-06-20T05:27:32.049Z,1004.23
2019-06-20T05:28:32.434Z,1004.21
2019-06-20T05:29:32.890Z,1004.18
2019-06-20T05:30:33.607Z,1004.20
2019-06-20T05:31:33.681Z,1004.21
2019-06-20T05:32:34.120Z,1004.20
2019-06-20T05:33:34.501Z,1004.17
2019-06-20T05:34:34.961Z,1004.21
2019-06-20T05:35:35.480Z,1004.20
2019-06-20T05:36:35.791Z,1004.15
2019-06-20T05:37:36.232Z,1004.11
2019-06-20T05:38:36.762Z,1004.11
2019-06-20T05:39:37.101Z,1004.06
2019-06-20T05:40:37.538Z,1004.03
2019-06-20T05:41:37.957Z,1003.98
2019-06-20T05:42:38.368Z,1004.01
2019-06-20T05:43:38.788Z,1003.97
2019-06-20T05:44:39.223Z,1003.99
2019-06-20T05:45:39.666Z,1003.97
2019-06-20T05:46:40.084Z,1003.92
2019-06-20T05:47:40.490Z,1003.87
2019-06-20T05:48:40.896Z,1003.78
2019-06-20T05:49:41.465Z,1003.79
2019-06-20T05:50:41.755Z,1003.75
2019-06-20T05:51:42.139Z,1003.75
2019-06-20T05:52:42.578Z,1003.85
2019-06-20T05:53:43.010Z,1003.85
2019-06-20T05:54:43.434Z,1003.79
2019-06-20T05:55:43.945Z,1003.71
2019-06-20T05:56:44.697Z,1003.63
2019-06-20T05:57:44.678Z,1003.53
2019-06-20T05:58:45.982Z,1003.49
2019-06-20T05:59:45.536Z,1003.54
2019-06-20T06:00:45.957Z,1003.62
2019-06-20T06:01:46.977Z,1003.69
2019-06-20T06:02:46.749Z,1003.85
2019-06-20T06:03:47.311Z,1003.92
2019-06-20T06:04:47.626Z,1003.98
2019-06-20T06:05:48.050Z,1004.03
2019-06-20T06:06:48.441Z,1004.04
2019-06-20T06:07:48.856Z,1004.04
2019-06-20T06:08:49.308Z,1004.01
2019-06-20T06:09:49.728Z,1004.08
2019-06-20T06:10:50.149Z,1004.17
2019-06-20T06:11:50.632Z,1004.15
2019-06-20T06:12:50.941Z,1004.22
2019-06-20T06:13:51.385Z,1004.32
2019-06-20T06:14:51.806Z,1004.40
2019-06-20T06:15:52.220Z,1004.47
2019-06-20T06:16:52.627Z,1004.49
2019-06-20T06:17:53.060Z,1004.58
2019-06-20T06:18:53.465Z,1004.69
2019-06-20T06:19:53.981Z,1004.80
2019-06-20T06:20:54.313Z,1004.82
2019-06-20T06:21:54.722Z,1004.90
2019-06-20T06:22:55.140Z,1004.95
2019-06-20T06:23:55.575Z,1005.06
2019-06-20T06:24:55.980Z,1005.18
2019-06-20T06:25:56.409Z,1005.29
2019-06-20T06:26:59.558Z,1005.31
2019-06-20T06:27:57.259Z,1005.41
2019-06-20T06:28:57.697Z,1005.46
2019-06-20T06:29:58.072Z,1005.59
2019-06-20T06:30:58.520Z,1005.58
2019-06-20T06:31:58.902Z,1005.70
2019-06-20T06:32:59.329Z,1005.72
2019-06-20T06:33:59.758Z,1005.78
2019-06-20T06:35:00.170Z,1005.90
2019-06-20T06:36:00.599Z,1006.02
2019-06-20T06:37:01.084Z,1006.14
2019-06-20T06:38:01.419Z,1006.03
2019-06-20T06:39:01.877Z,1006.13
2019-06-20T06:40:02.276Z,1006.22
2019-06-20T06:41:02.677Z,1006.42
2019-06-20T06:42:03.106Z,1006.33
2019-06-20T06:43:03.509Z,1006.28
2019-06-20T06:44:03.939Z,1006.31
2019-06-20T06:45:04.467Z,1006.33
2019-06-20T06:46:04.748Z,1006.32
2019-06-20T06:47:05.178Z,1006.24
2019-06-20T06:48:05.596Z,1006.20
2019-06-20T06:49:06.026Z,1006.15
2019-06-20T06:50:06.508Z,1006.19
2019-06-20T06:51:06.855Z,1006.17
2019-06-20T06:52:07.320Z,1006.14
2019-06-20T06:53:07.767Z,1006.14
2019-06-20T06:54:08.123Z,1006.12
2019-06-20T06:55:08.546Z,1006.21
2019-06-20T06:56:08.946Z,1006.23
2019-06-20T06:57:09.380Z,1006.18
2019-06-20T06:58:09.783Z,1006.15
2019-06-20T06:59:10.245Z,1006.14
2019-06-20T07:00:10.675Z,1006.24
2019-06-20T07:01:11.095Z,1006.29
2019-06-20T07:02:11.471Z,1006.35
2019-06-20T07:03:11.859Z,1006.40
2019-06-20T07:04:12.316Z,1006.45
2019-06-20T07:05:12.769Z,1006.48
2019-06-20T07:06:13.156Z,1006.43
2019-06-20T07:07:13.595Z,1006.50
2019-06-20T07:08:14.006Z,1006.44
2019-06-20T07:09:14.441Z,1006.47
2019-06-20T07:10:14.904Z,1006.36
2019-06-20T07:11:15.248Z,1006.33
2019-06-20T07:12:15.749Z,1006.23
2019-06-20T07:13:16.086Z,1006.16
2019-06-20T07:14:16.536Z,1006.18
2019-06-20T07:15:16.923Z,1006.16
2019-06-20T07:16:17.341Z,1006.17
2019-06-20T07:17:17.804Z,1006.07
2019-06-20T07:18:18.284Z,1006.08
2019-06-20T07:19:18.594Z,1006.04
2019-06-20T07:20:19.017Z,1006.00
2019-06-20T07:21:19.424Z,1005.96
2019-06-20T07:22:19.860Z,1005.98
2019-06-20T07:23:20.260Z,1005.96
2019-06-20T07:24:20.711Z,1005.98
2019-06-20T07:25:21.127Z,1005.96
2019-06-20T07:26:21.615Z,1005.90
2019-06-20T07:27:21.939Z,1005.88
2019-06-20T07:28:22.342Z,1005.79
2019-06-20T07:29:22.778Z,1005.79
2019-06-20T07:30:23.193Z,1005.71
2019-06-20T07:31:23.565Z,1005.73
2019-06-20T07:32:24.041Z,1005.80
2019-06-20T07:33:24.432Z,1005.74
2019-06-20T07:34:24.899Z,1005.79
2019-06-20T07:35:25.271Z,1005.81
2019-06-20T07:36:25.668Z,1005.82
2019-06-20T07:37:26.114Z,1005.80
2019-06-20T07:38:26.530Z,1005.84
2019-06-20T07:39:26.984Z,1005.82
2019-06-20T07:40:27.381Z,1005.82
2019-06-20T07:41:27.780Z,1005.84
2019-06-20T07:42:28.479Z,1005.88
2019-06-20T07:43:28.604Z,1005.85
2019-06-20T07:44:29.060Z,1005.81
2019-06-20T07:45:29.485Z,1005.80
2019-06-20T07:46:29.946Z,1005.81
2019-06-20T07:47:30.332Z,1005.75
2019-06-20T07:48:30.715Z,1005.70
2019-06-20T07:49:31.149Z,1005.67
2019-06-20T07:50:31.611Z,1005.62
2019-06-20T07:51:32.103Z,1005.63
2019-06-20T07:52:32.412Z,1005.60
2019-06-20T07:53:32.799Z,1005.55
2019-06-20T07:54:33.238Z,1005.55
2019-06-20T07:55:33.701Z,1005.60
2019-06-20T07:56:34.100Z,1005.57
2019-06-20T07:57:34.544Z,1005.56
2019-06-20T07:58:34.941Z,1005.57
2019-06-20T07:59:35.444Z,1005.64
2019-06-20T08:00:35.819Z,1005.63
2019-06-20T08:01:36.213Z,1005.63
2019-06-20T08:02:36.652Z,1005.67
2019-06-20T08:03:37.049Z,1005.70
2019-06-20T08:04:37.457Z,1005.71
2019-06-20T08:05:37.956Z,1005.73
2019-06-20T08:06:38.314Z,1005.69
2019-06-20T08:07:38.854Z,1005.74
2019-06-20T08:08:39.142Z,1005.77
2019-06-20T08:09:44.773Z,1005.69
2019-06-20T08:10:41.014Z,1005.78
2019-06-20T08:11:40.412Z,1005.72
2019-06-20T08:12:40.837Z,1005.69
2019-06-20T08:13:41.240Z,1005.69
2019-06-20T08:14:41.704Z,1005.66
2019-06-20T08:15:42.128Z,1005.61
2019-06-20T08:16:42.479Z,1005.58
2019-06-20T08:17:43.045Z,1005.56
2019-06-20T08:18:43.354Z,1005.57
2019-06-20T08:19:43.757Z,1005.54
2019-06-20T08:20:44.201Z,1005.51
2019-06-20T08:21:44.590Z,1005.48
2019-06-20T08:22:45.008Z,1005.50
2019-06-20T08:23:45.456Z,1005.53
2019-06-20T08:24:45.866Z,1005.51
2019-06-20T08:25:46.299Z,1005.54
2019-06-20T08:26:46.682Z,1005.59
2019-06-20T08:27:47.102Z,1005.59
2019-06-20T08:28:47.510Z,1005.61
2019-06-20T08:29:47.956Z,1005.63
2019-06-20T08:30:48.412Z,1005.63
2019-06-20T08:31:48.877Z,1005.65
2019-06-20T08:32:49.329Z,1005.61
2019-06-20T08:33:49.643Z,1005.56
2019-06-20T08:34:50.054Z,1005.54
2019-06-20T08:35:50.508Z,1005.55
2019-06-20T08:36:50.901Z,1005.56
2019-06-20T08:37:51.328Z,1005.65
2019-06-20T08:38:51.702Z,1005.66
2019-06-20T08:39:52.145Z,1005.63
2019-06-20T08:40:52.686Z,1005.66
2019-06-20T08:41:52.972Z,1005.72
2019-06-20T08:42:53.418Z,1005.72
2019-06-20T08:43:53.889Z,1005.74
2019-06-20T08:44:56.215Z,1005.63
2019-06-20T08:45:55.121Z,1005.57
2019-06-20T08:46:56.380Z,1005.47
2019-06-20T08:47:56.560Z,1005.40
2019-06-20T08:48:56.312Z,1005.38
2019-06-20T08:49:56.502Z,1005.42
2019-06-20T08:50:58.225Z,1005.45
2019-06-20T08:51:57.354Z,1005.53
2019-06-20T08:52:57.997Z,1005.58
2019-06-20T08:53:59.200Z,1005.62
2019-06-20T08:54:59.548Z,1005.65
2019-06-20T08:55:59.381Z,1005.70
2019-06-20T08:56:59.324Z,1005.70
2019-06-20T08:58:01.309Z,1005.72
2019-06-20T08:59:00.593Z,1005.78
2019-06-20T09:00:00.684Z,1005.79
2019-06-20T09:08:10.159Z,1005.91
2019-06-20T09:09:04.450Z,1005.90
2019-06-20T09:10:04.741Z,1005.94
2019-06-20T09:11:05.465Z,1005.92
2019-06-20T09:12:05.576Z,1005.92
2019-06-20T09:13:06.016Z,1005.97
2019-06-20T09:14:06.510Z,1005.94
2019-06-20T09:15:06.854Z,1005.96
2019-06-20T09:16:07.305Z,1005.88
2019-06-20T09:17:07.688Z,1005.87
2019-06-20T09:18:08.100Z,1005.84
2019-06-20T09:19:08.552Z,1005.80
2019-06-20T09:20:08.969Z,1005.81
2019-06-20T09:21:09.449Z,1005.82
2019-06-20T09:22:09.942Z,1005.83
2019-06-20T09:23:10.188Z,1005.77
2019-06-20T09:24:10.695Z,1005.78
2019-06-20T09:25:11.048Z,1005.80
2019-06-20T09:26:11.498Z,1005.78
2019-06-20T09:27:11.885Z,1005.75
2019-06-20T09:28:12.303Z,1005.82
2019-06-20T09:29:12.724Z,1005.83
2019-06-20T09:30:13.291Z,1005.87
2019-06-20T09:31:13.585Z,1005.89
2019-06-20T09:32:13.983Z,1005.89
2019-06-20T09:33:14.394Z,1005.93
2019-06-20T09:34:14.819Z,1005.93
2019-06-20T09:35:15.222Z,1005.89
2019-06-20T09:36:15.722Z,1005.95
2019-06-20T09:37:16.085Z,1005.93
2019-06-20T09:38:16.540Z,1005.91
2019-06-20T09:39:16.922Z,1005.97
2019-06-20T09:40:17.310Z,1005.94
2019-06-20T09:41:17.797Z,1006.04
2019-06-20T09:42:18.170Z,1005.96
2019-06-20T09:43:27.172Z,1005.99
2019-06-20T09:44:20.025Z,1005.99
2019-06-20T09:45:19.427Z,1005.99
2019-06-20T09:46:19.959Z,1005.98
2019-06-20T09:47:20.243Z,1006.02
2019-06-20T09:48:20.670Z,1006.00
2019-06-20T09:49:21.109Z,1005.98
2019-06-20T09:50:21.517Z,1006.01
2019-06-20T09:51:21.976Z,1006.02
2019-06-20T09:52:22.345Z,1006.00
2019-06-20T09:53:22.773Z,1006.05
2019-06-20T09:54:23.281Z,1006.09
2019-06-20T09:55:23.672Z,1006.09
2019-06-20T09:56:24.064Z,1006.11
2019-06-20T09:57:24.445Z,1006.08
2019-06-20T09:58:24.873Z,1006.14
2019-06-20T09:59:27.788Z,1006.13
2019-06-20T10:00:25.733Z,1006.12
2019-06-20T10:01:26.175Z,1006.17
2019-06-20T10:02:26.547Z,1006.18
2019-06-20T10:03:27.104Z,1006.18
2019-06-20T10:04:27.423Z,1006.21
2019-06-20T10:05:27.826Z,1006.22
2019-06-20T10:06:28.282Z,1006.24
2019-06-20T10:07:28.644Z,1006.34
2019-06-20T10:08:29.083Z,1006.27
2019-06-20T10:09:29.531Z,1006.34
2019-06-20T10:10:29.938Z,1006.33
2019-06-20T10:11:30.509Z,1006.34
2019-06-20T10:12:30.758Z,1006.36
2019-06-20T10:13:32.566Z,1006.41
2019-06-20T10:14:31.628Z,1006.41
2019-06-20T10:15:32.028Z,1006.38
2019-06-20T10:16:45.020Z,1006.38
2019-06-20T10:17:33.885Z,1006.33
2019-06-20T10:18:33.288Z,1006.37
2019-06-20T10:19:33.802Z,1006.38
2019-06-20T10:20:34.141Z,1006.40
2019-06-20T10:21:34.591Z,1006.42
2019-06-20T10:22:35.008Z,1006.39
2019-06-20T10:23:35.422Z,1006.40
2019-06-20T10:24:35.841Z,1006.38
2019-06-20T10:25:36.260Z,1006.43
2019-06-20T10:26:37.628Z,1006.38
2019-06-20T10:27:37.192Z,1006.35
2019-06-20T10:28:37.513Z,1006.35
2019-06-20T10:29:37.954Z,1006.35
2019-06-20T10:30:38.349Z,1006.35
2019-06-20T10:31:38.795Z,1006.37
2019-06-20T10:32:39.214Z,1006.38
2019-06-20T10:33:39.621Z,1006.34
2019-06-20T10:34:40.060Z,1006.36
2019-06-20T10:35:40.486Z,1006.40
2019-06-20T10:36:40.976Z,1006.41
2019-06-20T10:37:41.313Z,1006.40
2019-06-20T10:38:41.715Z,1006.37
2019-06-20T10:39:44.495Z,1006.37
2019-06-20T10:40:44.733Z,1006.39
2019-06-20T10:41:43.574Z,1006.44
2019-06-20T10:42:44.556Z,1006.44
2019-06-20T10:43:44.264Z,1006.42
2019-06-20T10:44:45.703Z,1006.45
2019-06-20T10:45:45.718Z,1006.42
2019-06-20T10:46:45.863Z,1006.37
2019-06-20T10:47:46.886Z,1006.36
2019-06-20T10:48:45.999Z,1006.39
2019-06-20T10:49:47.711Z,1006.38
2019-06-20T10:50:47.721Z,1006.36
2019-06-20T10:51:47.639Z,1006.34
2019-06-20T10:52:48.043Z,1006.38
2019-06-20T10:53:49.187Z,1006.34
2019-06-20T10:54:49.286Z,1006.46
2019-06-20T10:55:49.047Z,1006.37
2019-06-20T10:56:49.326Z,1006.45
2019-06-20T10:57:50.015Z,1006.44
2019-06-20T10:58:50.690Z,1006.50
2019-06-20T10:59:50.895Z,1006.48
2019-06-20T11:00:51.301Z,1006.48
2019-06-20T11:01:51.415Z,1006.50
2019-06-20T11:02:51.839Z,1006.53
2019-06-20T11:03:52.228Z,1006.51
2019-06-20T11:04:52.679Z,1006.46
2019-06-20T11:05:53.078Z,1006.47
2019-06-20T11:06:53.542Z,1006.45
2019-06-20T11:07:53.943Z,1006.48
2019-06-20T11:08:54.378Z,1006.41
2019-06-20T11:09:54.741Z,1006.40
2019-06-20T11:10:55.163Z,1006.39
2019-06-20T11:11:55.595Z,1006.43
2019-06-20T11:12:56.435Z,1006.43
2019-06-20T11:13:56.420Z,1006.35
2019-06-20T11:14:56.857Z,1006.31
2019-06-20T11:15:57.238Z,1006.34
2019-06-20T11:16:57.753Z,1006.32
2019-06-20T11:17:58.175Z,1006.30
2019-06-20T11:18:58.523Z,1006.37
2019-06-20T11:19:58.951Z,1006.30
2019-06-20T11:20:59.338Z,1006.38
2019-06-20T11:21:59.811Z,1006.35
2019-06-20T11:23:00.239Z,1006.35
2019-06-20T11:24:00.630Z,1006.34
2019-06-20T11:25:01.059Z,1006.31
2019-06-20T11:26:01.593Z,1006.30
2019-06-20T11:27:01.928Z,1006.27
2019-06-20T11:28:02.349Z,1006.24
2019-06-20T11:29:02.775Z,1006.33
2019-06-20T11:30:03.226Z,1006.29
2019-06-20T11:31:03.603Z,1006.28
2019-06-20T11:32:04.008Z,1006.26
2019-06-20T11:33:04.436Z,1006.27
2019-06-20T11:34:04.980Z,1006.27
2019-06-20T11:35:05.285Z,1006.27
2019-06-20T11:36:05.709Z,1006.25
2019-06-20T11:37:06.153Z,1006.28
2019-06-20T11:38:06.576Z,1006.26
2019-06-20T11:39:06.975Z,1006.31
2019-06-20T11:40:07.398Z,1006.29
2019-06-20T11:41:07.875Z,1006.27
2019-06-20T11:42:08.336Z,1006.29
2019-06-20T11:43:08.660Z,1006.23
2019-06-20T11:44:09.077Z,1006.26
2019-06-20T11:45:09.512Z,1006.25
2019-06-20T11:46:09.930Z,1006.27
2019-06-20T11:47:10.351Z,1006.33
2019-06-20T11:48:10.771Z,1006.24
2019-06-20T11:49:11.155Z,1006.28
2019-06-20T11:50:11.630Z,1006.31
2019-06-20T11:51:12.009Z,1006.35
2019-06-20T11:52:12.438Z,1006.36
2019-06-20T11:53:12.857Z,1006.31
2019-06-20T11:54:13.248Z,1006.35
2019-06-20T11:55:13.658Z,1006.34
2019-06-20T11:56:14.110Z,1006.34
2019-06-20T11:57:14.537Z,1006.37
2019-06-20T11:58:15.007Z,1006.38
2019-06-20T11:59:15.401Z,1006.41
2019-06-20T12:00:15.773Z,1006.36
2019-06-20T12:01:16.214Z,1006.46
2019-06-20T12:02:16.637Z,1006.41
2019-06-20T12:03:17.079Z,1006.42
2019-06-20T12:04:17.444Z,1006.40
2019-06-20T12:05:17.877Z,1006.43
2019-06-20T12:06:18.327Z,1006.41
2019-06-20T12:07:18.852Z,1006.35
2019-06-20T12:08:19.161Z,1006.38
2019-06-20T12:09:19.556Z,1006.34
2019-06-20T12:10:19.993Z,1006.34
2019-06-20T12:11:20.396Z,1006.34
2019-06-20T12:12:20.860Z,1006.32
2019-06-20T12:13:21.257Z,1006.30
2019-06-20T12:14:21.691Z,1006.35
2019-06-20T12:15:22.212Z,1006.35
2019-06-20T12:16:22.490Z,1006.35
2019-06-20T12:17:22.928Z,1006.32
2019-06-20T12:18:23.393Z,1006.36